sensor_id;sensor_type;location;lat;lon;timestamp;P1;durP1;ratioP1;P2;durP2;ratioP2
47966;SDS011;33733;52.456;13.620;2023-04-24T00:00:49;2.65;;;0.70;;
47966;SDS011;33733;52.456;13.620;2023-04-24T00:03:17;3.42;;;1.10;;
47966;SDS011;33733;52.456;13.620;2023-04-24T00:05:47;2.63;;;0.82;;
47966;SDS011;33733;52.456;13.620;2023-04-24T00:08:14;3.63;;;0.90;;
47966;SDS011;33733;52.456;13.620;2023-04-24T00:10:41;2.45;;;0.63;;
47966;SDS011;33733;52.456;13.620;2023-04-24T00:13:07;3.45;;;0.90;;
47966;SDS011;33733;52.456;13.620;2023-04-24T00:15:34;2.50;;;0.63;;
47966;SDS011;33733;52.456;13.620;2023-04-24T00:18:01;4.47;;;1.25;;
47966;SDS011;33733;52.456;13.620;2023-04-24T00:20:28;3.03;;;0.80;;
47966;SDS011;33733;52.456;13.620;2023-04-24T00:22:55;2.58;;;0.82;;
47966;SDS011;33733;52.456;13.620;2023-04-24T00:25:22;3.22;;;1.08;;
47966;SDS011;33733;52.456;13.620;2023-04-24T00:27:48;4.15;;;0.82;;
47966;SDS011;33733;52.456;13.620;2023-04-24T00:30:15;2.05;;;0.40;;
47966;SDS011;33733;52.456;13.620;2023-04-24T00:32:41;3.78;;;1.25;;
47966;SDS011;33733;52.456;13.620;2023-04-24T00:35:08;4.45;;;1.25;;
47966;SDS011;33733;52.456;13.620;2023-04-24T00:37:34;2.92;;;0.98;;
47966;SDS011;33733;52.456;13.620;2023-04-24T00:40:02;3.25;;;1.23;;
47966;SDS011;33733;52.456;13.620;2023-04-24T00:42:29;2.70;;;0.73;;
47966;SDS011;33733;52.456;13.620;2023-04-24T00:44:56;2.83;;;0.70;;
47966;SDS011;33733;52.456;13.620;2023-04-24T00:47:23;3.13;;;1.20;;
47966;SDS011;33733;52.456;13.620;2023-04-24T00:49:50;3.40;;;1.30;;
47966;SDS011;33733;52.456;13.620;2023-04-24T00:52:17;2.83;;;0.70;;
47966;SDS011;33733;52.456;13.620;2023-04-24T00:54:44;3.67;;;0.95;;
47966;SDS011;33733;52.456;13.620;2023-04-24T00:57:12;2.60;;;0.63;;
47966;SDS011;33733;52.456;13.620;2023-04-24T00:59:39;3.15;;;1.08;;
47966;SDS011;33733;52.456;13.620;2023-04-24T01:02:08;2.65;;;0.65;;
47966;SDS011;33733;52.456;13.620;2023-04-24T01:04:37;2.63;;;0.82;;
47966;SDS011;33733;52.456;13.620;2023-04-24T01:07:04;2.92;;;0.85;;
47966;SDS011;33733;52.456;13.620;2023-04-24T01:09:40;3.30;;;1.02;;
47966;SDS011;33733;52.456;13.620;2023-04-24T01:12:10;3.25;;;1.08;;
47966;SDS011;33733;52.456;13.620;2023-04-24T01:14:36;3.58;;;0.95;;
47966;SDS011;33733;52.456;13.620;2023-04-24T01:17:04;2.75;;;0.82;;
47966;SDS011;33733;52.456;13.620;2023-04-24T01:19:30;2.65;;;0.80;;
47966;SDS011;33733;52.456;13.620;2023-04-24T01:21:58;3.47;;;1.23;;
47966;SDS011;33733;52.456;13.620;2023-04-24T01:24:25;3.65;;;1.35;;
47966;SDS011;33733;52.456;13.620;2023-04-24T01:26:52;3.72;;;0.90;;
47966;SDS011;33733;52.456;13.620;2023-04-24T01:29:18;3.58;;;1.00;;
47966;SDS011;33733;52.456;13.620;2023-04-24T01:31:45;2.75;;;0.82;;
47966;SDS011;33733;52.456;13.620;2023-04-24T01:34:12;3.55;;;1.20;;
47966;SDS011;33733;52.456;13.620;2023-04-24T01:36:39;3.83;;;0.93;;
47966;SDS011;33733;52.456;13.620;2023-04-24T01:39:05;5.25;;;1.23;;
47966;SDS011;33733;52.456;13.620;2023-04-24T01:41:32;3.33;;;1.02;;
47966;SDS011;33733;52.456;13.620;2023-04-24T01:43:59;3.85;;;1.20;;
47966;SDS011;33733;52.456;13.620;2023-04-24T01:46:26;4.50;;;1.20;;
47966;SDS011;33733;52.456;13.620;2023-04-24T01:48:52;3.15;;;1.02;;
47966;SDS011;33733;52.456;13.620;2023-04-24T01:51:19;3.13;;;1.02;;
47966;SDS011;33733;52.456;13.620;2023-04-24T01:53:46;2.92;;;0.82;;
47966;SDS011;33733;52.456;13.620;2023-04-24T01:56:13;3.10;;;1.02;;
47966;SDS011;33733;52.456;13.620;2023-04-24T01:58:41;3.70;;;1.50;;
47966;SDS011;33733;52.456;13.620;2023-04-24T02:01:07;2.38;;;0.93;;
47966;SDS011;33733;52.456;13.620;2023-04-24T02:03:34;4.63;;;0.93;;
47966;SDS011;33733;52.456;13.620;2023-04-24T02:06:01;3.35;;;1.35;;
47966;SDS011;33733;52.456;13.620;2023-04-24T02:08:27;3.38;;;1.40;;
47966;SDS011;33733;52.456;13.620;2023-04-24T02:10:54;3.10;;;1.48;;
47966;SDS011;33733;52.456;13.620;2023-04-24T02:13:20;2.25;;;0.70;;
47966;SDS011;33733;52.456;13.620;2023-04-24T02:15:47;3.60;;;1.48;;
47966;SDS011;33733;52.456;13.620;2023-04-24T02:18:13;3.55;;;0.90;;
47966;SDS011;33733;52.456;13.620;2023-04-24T02:20:40;3.40;;;1.05;;
47966;SDS011;33733;52.456;13.620;2023-04-24T02:23:06;2.88;;;0.90;;
47966;SDS011;33733;52.456;13.620;2023-04-24T02:25:33;3.53;;;0.98;;
47966;SDS011;33733;52.456;13.620;2023-04-24T02:27:59;3.55;;;0.82;;
47966;SDS011;33733;52.456;13.620;2023-04-24T02:30:26;3.42;;;0.95;;
47966;SDS011;33733;52.456;13.620;2023-04-24T02:32:52;3.13;;;0.70;;
47966;SDS011;33733;52.456;13.620;2023-04-24T02:35:19;3.47;;;1.23;;
47966;SDS011;33733;52.456;13.620;2023-04-24T02:37:46;3.70;;;1.10;;
47966;SDS011;33733;52.456;13.620;2023-04-24T02:40:13;3.78;;;1.35;;
47966;SDS011;33733;52.456;13.620;2023-04-24T02:42:39;3.60;;;0.90;;
47966;SDS011;33733;52.456;13.620;2023-04-24T02:45:06;3.75;;;1.48;;
47966;SDS011;33733;52.456;13.620;2023-04-24T02:47:33;3.45;;;1.00;;
47966;SDS011;33733;52.456;13.620;2023-04-24T02:50:01;2.92;;;0.75;;
47966;SDS011;33733;52.456;13.620;2023-04-24T02:52:29;2.75;;;0.88;;
47966;SDS011;33733;52.456;13.620;2023-04-24T02:54:55;2.60;;;0.73;;
47966;SDS011;33733;52.456;13.620;2023-04-24T02:57:22;3.85;;;0.63;;
47966;SDS011;33733;52.456;13.620;2023-04-24T02:59:49;2.53;;;1.05;;
47966;SDS011;33733;52.456;13.620;2023-04-24T03:02:15;3.22;;;1.02;;
47966;SDS011;33733;52.456;13.620;2023-04-24T03:04:42;2.42;;;0.70;;
47966;SDS011;33733;52.456;13.620;2023-04-24T03:07:12;4.55;;;1.25;;
47966;SDS011;33733;52.456;13.620;2023-04-24T03:09:39;3.60;;;1.27;;
47966;SDS011;33733;52.456;13.620;2023-04-24T03:12:07;3.60;;;1.05;;
47966;SDS011;33733;52.456;13.620;2023-04-24T03:14:33;2.58;;;0.95;;
47966;SDS011;33733;52.456;13.620;2023-04-24T03:17:00;3.95;;;1.20;;
47966;SDS011;33733;52.456;13.620;2023-04-24T03:19:27;1.42;;;0.40;;
47966;SDS011;33733;52.456;13.620;2023-04-24T03:22:02;3.20;;;1.13;;
47966;SDS011;33733;52.456;13.620;2023-04-24T03:24:30;2.70;;;0.90;;
47966;SDS011;33733;52.456;13.620;2023-04-24T03:26:57;2.95;;;1.02;;
47966;SDS011;33733;52.456;13.620;2023-04-24T03:29:56;1.83;;;0.52;;
47966;SDS011;33733;52.456;13.620;2023-04-24T03:32:30;1.25;;;0.32;;
47966;SDS011;33733;52.456;13.620;2023-04-24T03:34:58;4.30;;;1.45;;
47966;SDS011;33733;52.456;13.620;2023-04-24T03:37:25;4.00;;;1.05;;
47966;SDS011;33733;52.456;13.620;2023-04-24T03:40:05;2.88;;;0.75;;
47966;SDS011;33733;52.456;13.620;2023-04-24T03:42:34;2.67;;;0.90;;
47966;SDS011;33733;52.456;13.620;2023-04-24T03:45:04;3.42;;;1.15;;
47966;SDS011;33733;52.456;13.620;2023-04-24T03:47:34;1.60;;;0.40;;
47966;SDS011;33733;52.456;13.620;2023-04-24T03:50:03;3.17;;;0.98;;
47966;SDS011;33733;52.456;13.620;2023-04-24T03:52:31;2.30;;;0.70;;
47966;SDS011;33733;52.456;13.620;2023-04-24T03:54:58;3.00;;;0.68;;
47966;SDS011;33733;52.456;13.620;2023-04-24T03:57:26;2.90;;;1.08;;
47966;SDS011;33733;52.456;13.620;2023-04-24T04:00:05;2.50;;;0.90;;
47966;SDS011;33733;52.456;13.620;2023-04-24T04:02:39;3.78;;;1.35;;
47966;SDS011;33733;52.456;13.620;2023-04-24T04:05:08;3.17;;;0.98;;
47966;SDS011;33733;52.456;13.620;2023-04-24T04:07:34;2.60;;;0.90;;
47966;SDS011;33733;52.456;13.620;2023-04-24T04:10:01;2.67;;;1.15;;
47966;SDS011;33733;52.456;13.620;2023-04-24T04:12:28;2.30;;;0.55;;
47966;SDS011;33733;52.456;13.620;2023-04-24T04:14:54;2.80;;;0.77;;
47966;SDS011;33733;52.456;13.620;2023-04-24T04:17:21;5.30;;;1.55;;
47966;SDS011;33733;52.456;13.620;2023-04-24T04:19:48;3.63;;;1.45;;
47966;SDS011;33733;52.456;13.620;2023-04-24T04:22:14;3.63;;;1.33;;
47966;SDS011;33733;52.456;13.620;2023-04-24T04:24:44;3.50;;;1.15;;
47966;SDS011;33733;52.456;13.620;2023-04-24T04:27:12;3.20;;;1.08;;
47966;SDS011;33733;52.456;13.620;2023-04-24T04:29:56;3.40;;;1.00;;
47966;SDS011;33733;52.456;13.620;2023-04-24T04:32:23;3.85;;;1.08;;
47966;SDS011;33733;52.456;13.620;2023-04-24T04:34:51;2.83;;;1.02;;
47966;SDS011;33733;52.456;13.620;2023-04-24T04:37:21;4.18;;;1.40;;
47966;SDS011;33733;52.456;13.620;2023-04-24T04:40:08;4.20;;;1.40;;
47966;SDS011;33733;52.456;13.620;2023-04-24T04:42:47;3.38;;;1.10;;
47966;SDS011;33733;52.456;13.620;2023-04-24T04:45:14;3.85;;;0.85;;
47966;SDS011;33733;52.456;13.620;2023-04-24T04:50:30;2.28;;;0.73;;
47966;SDS011;33733;52.456;13.620;2023-04-24T04:53:02;3.00;;;1.13;;
47966;SDS011;33733;52.456;13.620;2023-04-24T04:55:33;3.00;;;0.73;;
47966;SDS011;33733;52.456;13.620;2023-04-24T04:58:25;2.53;;;0.80;;
47966;SDS011;33733;52.456;13.620;2023-04-24T05:00:57;1.35;;;0.40;;
47966;SDS011;33733;52.456;13.620;2023-04-24T05:03:31;4.00;;;1.80;;
47966;SDS011;33733;52.456;13.620;2023-04-24T05:06:05;1.80;;;0.60;;
47966;SDS011;33733;52.456;13.620;2023-04-24T05:08:36;1.70;;;0.50;;
47966;SDS011;33733;52.456;13.620;2023-04-24T05:11:05;1.50;;;0.60;;
47966;SDS011;33733;52.456;13.620;2023-04-24T05:13:32;2.53;;;0.90;;
47966;SDS011;33733;52.456;13.620;2023-04-24T05:16:15;0.93;;;0.32;;
47966;SDS011;33733;52.456;13.620;2023-04-24T05:18:42;3.20;;;0.93;;
47966;SDS011;33733;52.456;13.620;2023-04-24T05:21:12;2.47;;;1.10;;
47966;SDS011;33733;52.456;13.620;2023-04-24T05:23:41;4.15;;;1.05;;
47966;SDS011;33733;52.456;13.620;2023-04-24T05:26:10;1.92;;;0.65;;
47966;SDS011;33733;52.456;13.620;2023-04-24T05:28:37;2.47;;;0.70;;
47966;SDS011;33733;52.456;13.620;2023-04-24T05:31:07;2.83;;;0.82;;
47966;SDS011;33733;52.456;13.620;2023-04-24T05:33:35;1.27;;;0.47;;
47966;SDS011;33733;52.456;13.620;2023-04-24T05:36:02;2.78;;;1.00;;
47966;SDS011;33733;52.456;13.620;2023-04-24T05:38:28;2.75;;;1.15;;
47966;SDS011;33733;52.456;13.620;2023-04-24T05:40:55;5.15;;;1.23;;
47966;SDS011;33733;52.456;13.620;2023-04-24T05:43:22;1.25;;;0.68;;
47966;SDS011;33733;52.456;13.620;2023-04-24T05:45:48;2.95;;;0.88;;
47966;SDS011;33733;52.456;13.620;2023-04-24T05:48:17;1.75;;;0.32;;
47966;SDS011;33733;52.456;13.620;2023-04-24T05:50:43;1.33;;;0.47;;
47966;SDS011;33733;52.456;13.620;2023-04-24T05:53:10;2.20;;;0.75;;
47966;SDS011;33733;52.456;13.620;2023-04-24T05:55:37;3.70;;;0.88;;
47966;SDS011;33733;52.456;13.620;2023-04-24T05:58:04;2.03;;;0.43;;
47966;SDS011;33733;52.456;13.620;2023-04-24T06:00:34;2.03;;;0.60;;
47966;SDS011;33733;52.456;13.620;2023-04-24T06:03:05;3.22;;;0.98;;
47966;SDS011;33733;52.456;13.620;2023-04-24T06:05:32;2.53;;;0.70;;
47966;SDS011;33733;52.456;13.620;2023-04-24T06:08:01;2.40;;;1.10;;
47966;SDS011;33733;52.456;13.620;2023-04-24T06:10:31;1.83;;;0.60;;
47966;SDS011;33733;52.456;13.620;2023-04-24T06:12:58;1.08;;;0.40;;
47966;SDS011;33733;52.456;13.620;2023-04-24T06:15:29;1.70;;;0.50;;
47966;SDS011;33733;52.456;13.620;2023-04-24T06:18:02;1.48;;;0.57;;
47966;SDS011;33733;52.456;13.620;2023-04-24T06:20:29;1.77;;;0.70;;
47966;SDS011;33733;52.456;13.620;2023-04-24T06:22:56;3.30;;;0.80;;
47966;SDS011;33733;52.456;13.620;2023-04-24T06:25:24;0.80;;;0.20;;
47966;SDS011;33733;52.456;13.620;2023-04-24T06:27:51;3.13;;;0.40;;
47966;SDS011;33733;52.456;13.620;2023-04-24T06:30:18;2.03;;;0.50;;
47966;SDS011;33733;52.456;13.620;2023-04-24T06:32:44;1.20;;;0.45;;
47966;SDS011;33733;52.456;13.620;2023-04-24T06:35:11;1.77;;;0.40;;
47966;SDS011;33733;52.456;13.620;2023-04-24T06:37:39;1.30;;;0.30;;
47966;SDS011;33733;52.456;13.620;2023-04-24T06:40:06;1.60;;;0.40;;
47966;SDS011;33733;52.456;13.620;2023-04-24T06:42:34;2.15;;;0.70;;
47966;SDS011;33733;52.456;13.620;2023-04-24T06:45:03;1.05;;;0.22;;
47966;SDS011;33733;52.456;13.620;2023-04-24T06:47:29;0.95;;;0.20;;
47966;SDS011;33733;52.456;13.620;2023-04-24T06:49:56;2.15;;;0.60;;
47966;SDS011;33733;52.456;13.620;2023-04-24T06:52:23;1.25;;;0.22;;
47966;SDS011;33733;52.456;13.620;2023-04-24T06:54:49;1.20;;;0.30;;
47966;SDS011;33733;52.456;13.620;2023-04-24T06:57:17;1.67;;;0.45;;
47966;SDS011;33733;52.456;13.620;2023-04-24T06:59:43;1.83;;;0.68;;
47966;SDS011;33733;52.456;13.620;2023-04-24T07:02:10;0.75;;;0.22;;
47966;SDS011;33733;52.456;13.620;2023-04-24T07:04:37;1.13;;;0.35;;
47966;SDS011;33733;52.456;13.620;2023-04-24T07:07:04;2.42;;;0.40;;
47966;SDS011;33733;52.456;13.620;2023-04-24T07:09:30;2.75;;;0.73;;
47966;SDS011;33733;52.456;13.620;2023-04-24T07:11:58;1.83;;;0.40;;
47966;SDS011;33733;52.456;13.620;2023-04-24T07:14:24;2.13;;;0.40;;
47966;SDS011;33733;52.456;13.620;2023-04-24T07:16:51;2.92;;;0.38;;
47966;SDS011;33733;52.456;13.620;2023-04-24T07:19:18;2.72;;;0.60;;
47966;SDS011;33733;52.456;13.620;2023-04-24T07:21:44;1.33;;;0.30;;
47966;SDS011;33733;52.456;13.620;2023-04-24T07:24:13;1.63;;;0.52;;
47966;SDS011;33733;52.456;13.620;2023-04-24T07:26:40;1.00;;;0.30;;
47966;SDS011;33733;52.456;13.620;2023-04-24T07:29:07;1.38;;;0.38;;
47966;SDS011;33733;52.456;13.620;2023-04-24T07:31:34;1.23;;;0.28;;
47966;SDS011;33733;52.456;13.620;2023-04-24T07:34:00;1.40;;;0.43;;
47966;SDS011;33733;52.456;13.620;2023-04-24T07:36:27;1.33;;;0.30;;
47966;SDS011;33733;52.456;13.620;2023-04-24T07:38:54;1.05;;;0.30;;
47966;SDS011;33733;52.456;13.620;2023-04-24T07:41:22;1.42;;;0.30;;
47966;SDS011;33733;52.456;13.620;2023-04-24T07:43:50;2.17;;;0.40;;
47966;SDS011;33733;52.456;13.620;2023-04-24T07:46:17;0.93;;;0.20;;
47966;SDS011;33733;52.456;13.620;2023-04-24T07:48:46;2.08;;;0.60;;
47966;SDS011;33733;52.456;13.620;2023-04-24T07:51:30;2.45;;;0.32;;
47966;SDS011;33733;52.456;13.620;2023-04-24T07:53:58;1.25;;;0.38;;
47966;SDS011;33733;52.456;13.620;2023-04-24T07:56:25;1.25;;;0.20;;
47966;SDS011;33733;52.456;13.620;2023-04-24T07:58:53;1.20;;;0.50;;
47966;SDS011;33733;52.456;13.620;2023-04-24T08:01:19;1.65;;;0.57;;
47966;SDS011;33733;52.456;13.620;2023-04-24T08:03:46;1.30;;;0.40;;
47966;SDS011;33733;52.456;13.620;2023-04-24T08:06:14;2.30;;;0.30;;
47966;SDS011;33733;52.456;13.620;2023-04-24T08:08:40;0.77;;;0.22;;
47966;SDS011;33733;52.456;13.620;2023-04-24T08:11:07;1.13;;;0.30;;
47966;SDS011;33733;52.456;13.620;2023-04-24T08:13:33;1.25;;;0.40;;
47966;SDS011;33733;52.456;13.620;2023-04-24T08:16:00;2.08;;;0.20;;
47966;SDS011;33733;52.456;13.620;2023-04-24T08:18:27;1.15;;;0.20;;
47966;SDS011;33733;52.456;13.620;2023-04-24T08:20:53;1.10;;;0.20;;
47966;SDS011;33733;52.456;13.620;2023-04-24T08:23:20;1.00;;;0.20;;
47966;SDS011;33733;52.456;13.620;2023-04-24T08:25:46;1.92;;;0.20;;
47966;SDS011;33733;52.456;13.620;2023-04-24T08:28:13;1.02;;;0.30;;
47966;SDS011;33733;52.456;13.620;2023-04-24T08:30:46;0.50;;;0.13;;
47966;SDS011;33733;52.456;13.620;2023-04-24T08:33:14;1.95;;;0.47;;
47966;SDS011;33733;52.456;13.620;2023-04-24T08:35:41;1.45;;;0.63;;
47966;SDS011;33733;52.456;13.620;2023-04-24T08:38:07;1.08;;;0.65;;
47966;SDS011;33733;52.456;13.620;2023-04-24T08:40:34;1.20;;;0.32;;
47966;SDS011;33733;52.456;13.620;2023-04-24T08:43:01;4.78;;;0.55;;
47966;SDS011;33733;52.456;13.620;2023-04-24T08:45:27;1.25;;;0.50;;
47966;SDS011;33733;52.456;13.620;2023-04-24T08:47:54;1.33;;;0.20;;
47966;SDS011;33733;52.456;13.620;2023-04-24T08:50:21;0.60;;;0.13;;
47966;SDS011;33733;52.456;13.620;2023-04-24T08:52:52;1.45;;;0.50;;
47966;SDS011;33733;52.456;13.620;2023-04-24T08:55:23;0.77;;;0.20;;
47966;SDS011;33733;52.456;13.620;2023-04-24T08:57:51;0.88;;;0.57;;
47966;SDS011;33733;52.456;13.620;2023-04-24T09:00:22;4.32;;;0.50;;
47966;SDS011;33733;52.456;13.620;2023-04-24T09:02:49;0.50;;;0.17;;
47966;SDS011;33733;52.456;13.620;2023-04-24T09:05:17;1.17;;;0.32;;
47966;SDS011;33733;52.456;13.620;2023-04-24T09:07:45;0.90;;;0.43;;
47966;SDS011;33733;52.456;13.620;2023-04-24T09:10:16;1.50;;;0.35;;
47966;SDS011;33733;52.456;13.620;2023-04-24T09:12:43;2.83;;;0.20;;
47966;SDS011;33733;52.456;13.620;2023-04-24T09:15:10;0.55;;;0.17;;
47966;SDS011;33733;52.456;13.620;2023-04-24T09:17:37;1.25;;;0.20;;
47966;SDS011;33733;52.456;13.620;2023-04-24T09:20:04;0.85;;;0.20;;
47966;SDS011;33733;52.456;13.620;2023-04-24T09:22:31;0.60;;;0.17;;
47966;SDS011;33733;52.456;13.620;2023-04-24T09:25:05;0.73;;;0.20;;
47966;SDS011;33733;52.456;13.620;2023-04-24T09:27:33;1.45;;;0.43;;
47966;SDS011;33733;52.456;13.620;2023-04-24T09:30:00;1.13;;;0.25;;
47966;SDS011;33733;52.456;13.620;2023-04-24T09:32:27;1.02;;;0.47;;
47966;SDS011;33733;52.456;13.620;2023-04-24T09:35:06;0.75;;;0.20;;
47966;SDS011;33733;52.456;13.620;2023-04-24T09:37:52;0.57;;;0.20;;
47966;SDS011;33733;52.456;13.620;2023-04-24T09:40:19;1.38;;;0.30;;
47966;SDS011;33733;52.456;13.620;2023-04-24T09:45:18;1.00;;;0.32;;
47966;SDS011;33733;52.456;13.620;2023-04-24T09:47:44;0.75;;;0.20;;
47966;SDS011;33733;52.456;13.620;2023-04-24T09:50:15;1.35;;;0.35;;
47966;SDS011;33733;52.456;13.620;2023-04-24T09:52:44;2.20;;;0.47;;
47966;SDS011;33733;52.456;13.620;2023-04-24T09:55:13;1.15;;;0.20;;
47966;SDS011;33733;52.456;13.620;2023-04-24T09:57:50;2.10;;;0.35;;
47966;SDS011;33733;52.456;13.620;2023-04-24T10:00:27;1.05;;;0.30;;
47966;SDS011;33733;52.456;13.620;2023-04-24T10:05:33;1.48;;;0.35;;
47966;SDS011;33733;52.456;13.620;2023-04-24T10:08:07;1.58;;;0.30;;
47966;SDS011;33733;52.456;13.620;2023-04-24T10:10:38;2.67;;;0.40;;
47966;SDS011;33733;52.456;13.620;2023-04-24T10:13:06;1.42;;;0.32;;
47966;SDS011;33733;52.456;13.620;2023-04-24T10:15:34;1.95;;;0.32;;
47966;SDS011;33733;52.456;13.620;2023-04-24T10:18:01;1.15;;;0.20;;
47966;SDS011;33733;52.456;13.620;2023-04-24T10:20:28;1.45;;;0.50;;
47966;SDS011;33733;52.456;13.620;2023-04-24T10:22:57;0.88;;;0.35;;
47966;SDS011;33733;52.456;13.620;2023-04-24T10:25:25;1.50;;;0.60;;
47966;SDS011;33733;52.456;13.620;2023-04-24T10:27:54;0.63;;;0.20;;
47966;SDS011;33733;52.456;13.620;2023-04-24T10:30:31;0.77;;;0.22;;
47966;SDS011;33733;52.456;13.620;2023-04-24T10:33:02;1.35;;;0.63;;
47966;SDS011;33733;52.456;13.620;2023-04-24T10:35:30;2.60;;;0.60;;
47966;SDS011;33733;52.456;13.620;2023-04-24T10:38:02;0.70;;;0.15;;
47966;SDS011;33733;52.456;13.620;2023-04-24T10:40:32;1.33;;;0.30;;
47966;SDS011;33733;52.456;13.620;2023-04-24T10:43:04;1.10;;;0.30;;
47966;SDS011;33733;52.456;13.620;2023-04-24T10:45:35;1.17;;;0.22;;
47966;SDS011;33733;52.456;13.620;2023-04-24T10:48:06;0.85;;;0.22;;
47966;SDS011;33733;52.456;13.620;2023-04-24T10:50:44;3.65;;;0.40;;
47966;SDS011;33733;52.456;13.620;2023-04-24T10:53:18;1.10;;;0.32;;
47966;SDS011;33733;52.456;13.620;2023-04-24T10:58:14;1.23;;;0.45;;
47966;SDS011;33733;52.456;13.620;2023-04-24T11:00:43;2.55;;;0.43;;
47966;SDS011;33733;52.456;13.620;2023-04-24T11:03:23;0.77;;;0.22;;
47966;SDS011;33733;52.456;13.620;2023-04-24T11:06:01;0.98;;;0.20;;
47966;SDS011;33733;52.456;13.620;2023-04-24T11:08:38;1.38;;;0.55;;
47966;SDS011;33733;52.456;13.620;2023-04-24T11:11:10;0.57;;;0.17;;
47966;SDS011;33733;52.456;13.620;2023-04-24T11:18:51;1.33;;;0.40;;
47966;SDS011;33733;52.456;13.620;2023-04-24T11:21:20;0.80;;;0.30;;
47966;SDS011;33733;52.456;13.620;2023-04-24T11:23:48;1.23;;;0.60;;
47966;SDS011;33733;52.456;13.620;2023-04-24T11:26:19;3.50;;;0.45;;
47966;SDS011;33733;52.456;13.620;2023-04-24T11:28:49;2.50;;;0.30;;
47966;SDS011;33733;52.456;13.620;2023-04-24T11:31:33;1.10;;;0.28;;
47966;SDS011;33733;52.456;13.620;2023-04-24T11:34:15;2.08;;;0.98;;
47966;SDS011;33733;52.456;13.620;2023-04-24T11:36:45;1.35;;;0.40;;
47966;SDS011;33733;52.456;13.620;2023-04-24T11:39:12;1.25;;;0.50;;
47966;SDS011;33733;52.456;13.620;2023-04-24T11:41:40;2.40;;;0.70;;
47966;SDS011;33733;52.456;13.620;2023-04-24T11:44:07;1.65;;;0.38;;
47966;SDS011;33733;52.456;13.620;2023-04-24T11:46:35;1.45;;;0.60;;
47966;SDS011;33733;52.456;13.620;2023-04-24T11:49:04;2.58;;;0.68;;
47966;SDS011;33733;52.456;13.620;2023-04-24T11:51:31;1.40;;;0.20;;
47966;SDS011;33733;52.456;13.620;2023-04-24T11:54:16;1.55;;;0.25;;
47966;SDS011;33733;52.456;13.620;2023-04-24T11:56:46;1.38;;;0.52;;
47966;SDS011;33733;52.456;13.620;2023-04-24T11:59:13;1.88;;;0.60;;
47966;SDS011;33733;52.456;13.620;2023-04-24T12:01:44;0.98;;;0.28;;
47966;SDS011;33733;52.456;13.620;2023-04-24T12:04:11;1.55;;;0.30;;
47966;SDS011;33733;52.456;13.620;2023-04-24T12:06:39;1.00;;;0.30;;
47966;SDS011;33733;52.456;13.620;2023-04-24T12:09:06;1.95;;;0.95;;
47966;SDS011;33733;52.456;13.620;2023-04-24T12:11:52;2.25;;;0.50;;
47966;SDS011;33733;52.456;13.620;2023-04-24T12:14:20;1.63;;;0.52;;
47966;SDS011;33733;52.456;13.620;2023-04-24T12:16:47;1.13;;;0.30;;
47966;SDS011;33733;52.456;13.620;2023-04-24T12:19:18;0.80;;;0.20;;
47966;SDS011;33733;52.456;13.620;2023-04-24T12:21:58;2.60;;;0.52;;
47966;SDS011;33733;52.456;13.620;2023-04-24T12:24:29;1.27;;;0.40;;
47966;SDS011;33733;52.456;13.620;2023-04-24T12:29:28;1.35;;;0.40;;
47966;SDS011;33733;52.456;13.620;2023-04-24T12:31:54;1.73;;;0.40;;
47966;SDS011;33733;52.456;13.620;2023-04-24T12:34:22;2.15;;;0.50;;
47966;SDS011;33733;52.456;13.620;2023-04-24T12:36:51;1.10;;;0.32;;
47966;SDS011;33733;52.456;13.620;2023-04-24T12:39:18;1.08;;;0.20;;
47966;SDS011;33733;52.456;13.620;2023-04-24T12:41:55;1.52;;;0.57;;
47966;SDS011;33733;52.456;13.620;2023-04-24T12:44:31;1.13;;;0.30;;
47966;SDS011;33733;52.456;13.620;2023-04-24T12:47:00;1.33;;;0.50;;
47966;SDS011;33733;52.456;13.620;2023-04-24T12:49:29;0.80;;;0.30;;
47966;SDS011;33733;52.456;13.620;2023-04-24T12:51:56;4.78;;;0.75;;
47966;SDS011;33733;52.456;13.620;2023-04-24T12:54:23;3.75;;;0.40;;
47966;SDS011;33733;52.456;13.620;2023-04-24T12:56:49;2.38;;;0.68;;
47966;SDS011;33733;52.456;13.620;2023-04-24T12:59:16;0.70;;;0.20;;
47966;SDS011;33733;52.456;13.620;2023-04-24T13:01:42;1.48;;;0.43;;
47966;SDS011;33733;52.456;13.620;2023-04-24T13:04:09;1.50;;;0.40;;
47966;SDS011;33733;52.456;13.620;2023-04-24T13:06:36;4.57;;;0.73;;
47966;SDS011;33733;52.456;13.620;2023-04-24T13:09:03;6.90;;;0.40;;
47966;SDS011;33733;52.456;13.620;2023-04-24T13:11:29;1.33;;;0.32;;
47966;SDS011;33733;52.456;13.620;2023-04-24T13:13:56;1.25;;;0.30;;
47966;SDS011;33733;52.456;13.620;2023-04-24T13:16:23;1.00;;;0.28;;
47966;SDS011;33733;52.456;13.620;2023-04-24T13:18:49;1.67;;;0.40;;
47966;SDS011;33733;52.456;13.620;2023-04-24T13:21:16;3.17;;;0.30;;
47966;SDS011;33733;52.456;13.620;2023-04-24T13:23:43;1.20;;;0.40;;
47966;SDS011;33733;52.456;13.620;2023-04-24T13:26:10;1.05;;;0.40;;
47966;SDS011;33733;52.456;13.620;2023-04-24T13:28:36;0.90;;;0.30;;
47966;SDS011;33733;52.456;13.620;2023-04-24T13:31:04;0.73;;;0.20;;
47966;SDS011;33733;52.456;13.620;2023-04-24T13:33:31;1.33;;;0.50;;
47966;SDS011;33733;52.456;13.620;2023-04-24T13:35:57;0.85;;;0.15;;
47966;SDS011;33733;52.456;13.620;2023-04-24T13:38:24;1.23;;;0.22;;
47966;SDS011;33733;52.456;13.620;2023-04-24T13:40:50;1.15;;;0.35;;
47966;SDS011;33733;52.456;13.620;2023-04-24T13:43:17;1.23;;;0.20;;
47966;SDS011;33733;52.456;13.620;2023-04-24T13:45:44;2.03;;;0.35;;
47966;SDS011;33733;52.456;13.620;2023-04-24T13:48:10;1.02;;;0.25;;
47966;SDS011;33733;52.456;13.620;2023-04-24T13:50:37;1.73;;;0.40;;
47966;SDS011;33733;52.456;13.620;2023-04-24T13:53:03;3.83;;;0.50;;
47966;SDS011;33733;52.456;13.620;2023-04-24T13:55:30;1.05;;;0.43;;
47966;SDS011;33733;52.456;13.620;2023-04-24T13:57:57;1.02;;;0.20;;
47966;SDS011;33733;52.456;13.620;2023-04-24T14:00:23;1.92;;;0.60;;
47966;SDS011;33733;52.456;13.620;2023-04-24T14:02:50;1.50;;;0.40;;
47966;SDS011;33733;52.456;13.620;2023-04-24T14:05:17;1.38;;;0.63;;
47966;SDS011;33733;52.456;13.620;2023-04-24T14:07:44;2.25;;;1.27;;
47966;SDS011;33733;52.456;13.620;2023-04-24T14:10:11;1.92;;;0.52;;
47966;SDS011;33733;52.456;13.620;2023-04-24T14:12:37;0.95;;;0.22;;
47966;SDS011;33733;52.456;13.620;2023-04-24T14:15:04;1.13;;;0.25;;
47966;SDS011;33733;52.456;13.620;2023-04-24T14:17:31;0.73;;;0.30;;
47966;SDS011;33733;52.456;13.620;2023-04-24T14:19:58;1.20;;;0.52;;
47966;SDS011;33733;52.456;13.620;2023-04-24T14:22:26;1.50;;;0.50;;
47966;SDS011;33733;52.456;13.620;2023-04-24T14:24:53;1.67;;;0.80;;
47966;SDS011;33733;52.456;13.620;2023-04-24T14:27:20;1.00;;;0.30;;
47966;SDS011;33733;52.456;13.620;2023-04-24T14:29:46;1.23;;;0.30;;
47966;SDS011;33733;52.456;13.620;2023-04-24T14:32:13;1.15;;;0.43;;
47966;SDS011;33733;52.456;13.620;2023-04-24T14:34:41;0.98;;;0.30;;
47966;SDS011;33733;52.456;13.620;2023-04-24T14:37:08;1.77;;;0.47;;
47966;SDS011;33733;52.456;13.620;2023-04-24T14:39:34;1.20;;;0.32;;
47966;SDS011;33733;52.456;13.620;2023-04-24T14:42:01;1.23;;;0.43;;
47966;SDS011;33733;52.456;13.620;2023-04-24T14:44:27;0.82;;;0.20;;
47966;SDS011;33733;52.456;13.620;2023-04-24T14:46:54;2.33;;;0.30;;
47966;SDS011;33733;52.456;13.620;2023-04-24T14:49:23;2.20;;;0.50;;
47966;SDS011;33733;52.456;13.620;2023-04-24T14:51:49;1.08;;;0.22;;
47966;SDS011;33733;52.456;13.620;2023-04-24T14:54:16;0.98;;;0.32;;
47966;SDS011;33733;52.456;13.620;2023-04-24T14:56:42;1.33;;;0.35;;
47966;SDS011;33733;52.456;13.620;2023-04-24T14:59:10;1.50;;;0.43;;